createdAt,value
2018-08-12T00:00:30.204Z,72.29
2018-08-12T00:02:59.996Z,72.22
2018-08-12T00:05:29.293Z,72.81
2018-08-12T00:07:58.566Z,73.55
2018-08-12T00:10:27.902Z,73.37
2018-08-12T00:12:57.196Z,74.10
2018-08-12T00:15:26.581Z,74.37
2018-08-12T00:17:55.874Z,74.35
2018-08-12T00:20:25.192Z,74.56
2018-08-12T00:22:54.487Z,74.64
2018-08-12T00:25:24.410Z,74.77
2018-08-12T00:27:53.699Z,75.25
2018-08-12T00:30:29.472Z,75.79
2018-08-12T00:32:58.749Z,75.64
2018-08-12T00:35:28.068Z,75.70
2018-08-12T00:37:57.384Z,75.72
2018-08-12T00:40:26.807Z,75.78
2018-08-12T00:42:56.106Z,75.81
2018-08-12T00:45:25.390Z,75.74
2018-08-12T00:47:54.658Z,75.13
2018-08-12T00:50:23.977Z,75.80
2018-08-12T00:52:53.277Z,76.14
2018-08-12T00:55:22.606Z,76.32
2018-08-12T00:57:51.888Z,75.58
2018-08-12T01:00:22.510Z,75.70
2018-08-12T01:02:51.824Z,76.26
2018-08-12T01:05:21.170Z,76.09
2018-08-12T01:07:51.051Z,75.73
2018-08-12T01:10:20.805Z,76.70
2018-08-12T01:12:49.871Z,77.16
2018-08-12T01:15:21.706Z,77.10
2018-08-12T01:17:50.982Z,76.93
2018-08-12T01:20:24.030Z,77.29
2018-08-12T01:22:53.427Z,77.43
2018-08-12T01:25:23.118Z,77.92
2018-08-12T01:27:52.423Z,77.93
2018-08-12T01:30:22.505Z,77.81
2018-08-12T01:32:51.793Z,77.03
2018-08-12T01:35:21.080Z,77.13
2018-08-12T01:37:50.639Z,77.66
2018-08-12T01:40:20.339Z,77.48
2018-08-12T01:42:49.627Z,77.62
2018-08-12T01:45:20.601Z,76.72
2018-08-12T01:47:49.933Z,77.84
2018-08-12T01:50:20.083Z,78.75
2018-08-12T01:52:49.373Z,78.54
2018-08-12T01:55:18.649Z,78.66
2018-08-12T01:57:47.906Z,78.04
2018-08-12T02:00:19.703Z,77.96
2018-08-12T02:02:49.268Z,77.15
2018-08-12T02:05:18.778Z,76.97
2018-08-12T02:07:48.113Z,75.96
2018-08-12T02:10:17.419Z,75.87
2018-08-12T02:12:46.729Z,75.76
2018-08-12T02:15:16.065Z,75.82
2018-08-12T02:17:45.404Z,76.42
2018-08-12T02:20:14.937Z,75.32
2018-08-12T02:22:44.208Z,75.54
2018-08-12T02:25:13.595Z,76.23
2018-08-12T02:27:42.883Z,75.69
2018-08-12T02:30:13.430Z,75.31
2018-08-12T02:32:43.806Z,75.53
2018-08-12T02:35:13.094Z,75.31
2018-08-12T02:37:42.438Z,75.83
2018-08-12T02:40:11.843Z,76.47
2018-08-12T02:42:41.195Z,76.61
2018-08-12T02:45:13.968Z,77.36
2018-08-12T02:47:43.265Z,77.56
2018-08-12T02:50:12.524Z,77.37
2018-08-12T02:52:41.793Z,77.07
2018-08-12T02:55:11.739Z,76.74
2018-08-12T02:57:41.003Z,76.71
2018-08-12T03:00:12.166Z,77.57
2018-08-12T03:02:41.522Z,77.78
2018-08-12T03:05:10.873Z,77.20
2018-08-12T03:07:40.197Z,77.40
2018-08-12T03:10:11.032Z,77.52
2018-08-12T03:12:40.391Z,77.98
2018-08-12T03:15:10.874Z,78.53
2018-08-12T03:17:40.440Z,77.97
2018-08-12T03:20:11.623Z,77.91
2018-08-12T03:22:40.909Z,78.11
2018-08-12T03:25:11.352Z,78.03
2018-08-12T03:27:40.790Z,78.43
2018-08-12T03:30:11.510Z,78.23
2018-08-12T03:32:41.126Z,79.24
2018-08-12T03:35:10.428Z,78.81
2018-08-12T03:37:39.729Z,79.45
2018-08-12T03:40:11.920Z,79.35
2018-08-12T03:42:41.478Z,79.80
2018-08-12T03:45:11.229Z,79.74
2018-08-12T03:47:40.513Z,79.97
2018-08-12T03:50:11.049Z,79.27
2018-08-12T03:52:40.707Z,79.69
2018-08-12T03:55:10.078Z,79.64
2018-08-12T03:57:39.410Z,80.24
2018-08-12T04:00:19.972Z,80.09
2018-08-12T04:02:49.735Z,80.38
2018-08-12T04:05:19.527Z,79.78
2018-08-12T04:07:48.891Z,79.52
2018-08-12T04:10:18.257Z,80.09
2018-08-12T04:12:47.569Z,80.03
2018-08-12T04:15:16.894Z,80.54
2018-08-12T04:17:46.202Z,80.76
2018-08-12T04:20:15.529Z,80.35
2018-08-12T04:22:44.866Z,80.03
2018-08-12T04:25:14.192Z,80.31
2018-08-12T04:27:43.615Z,80.46
2018-08-12T04:30:13.147Z,80.68
2018-08-12T04:32:42.418Z,80.13
2018-08-12T04:35:11.711Z,79.25
2018-08-12T04:37:40.988Z,79.76
2018-08-12T04:40:10.325Z,79.84
2018-08-12T04:42:39.602Z,79.65
2018-08-12T04:45:09.029Z,79.35
2018-08-12T04:47:38.905Z,79.32
2018-08-12T04:50:08.703Z,79.35
2018-08-12T04:52:38.208Z,78.92
2018-08-12T04:55:07.935Z,78.78
2018-08-12T04:57:37.338Z,79.45
2018-08-12T05:00:07.684Z,79.13
2018-08-12T05:02:36.999Z,78.59
2018-08-12T05:05:06.586Z,78.98
2018-08-12T05:07:35.906Z,79.42
2018-08-12T05:10:06.353Z,78.97
2018-08-12T05:12:35.693Z,78.27
2018-08-12T05:15:06.818Z,79.12
2018-08-12T05:17:36.178Z,78.20
2018-08-12T05:20:06.121Z,78.46
2018-08-12T05:22:35.450Z,78.47
2018-08-12T05:25:04.907Z,78.35
2018-08-12T05:27:41.153Z,78.47
2018-08-12T05:30:11.332Z,77.91
2018-08-12T05:32:41.680Z,75.68
2018-08-12T05:35:12.950Z,72.39
2018-08-12T05:37:42.778Z,70.39
2018-08-12T05:40:12.994Z,69.57
2018-08-12T05:42:42.472Z,67.13
2018-08-12T05:45:11.849Z,67.84
2018-08-12T05:47:41.152Z,66.81
2018-08-12T05:50:11.169Z,64.19
2018-08-12T05:52:40.635Z,62.89
2018-08-12T05:55:10.001Z,63.31
2018-08-12T05:57:39.301Z,63.50
2018-08-12T06:00:12.191Z,62.04
2018-08-12T06:02:41.647Z,61.43
2018-08-12T06:05:11.242Z,60.51
2018-08-12T06:07:40.533Z,60.27
2018-08-12T06:10:12.193Z,59.79
2018-08-12T06:12:41.647Z,59.98
2018-08-12T06:15:11.899Z,59.68
2018-08-12T06:17:41.281Z,58.45
2018-08-12T06:20:11.670Z,58.62
2018-08-12T06:22:41.000Z,58.17
2018-08-12T06:25:11.352Z,57.09
2018-08-12T06:27:40.860Z,58.14
2018-08-12T06:30:13.351Z,57.83
2018-08-12T06:32:42.867Z,58.63
2018-08-12T06:35:12.949Z,57.88
2018-08-12T06:37:42.715Z,58.35
2018-08-12T06:40:13.979Z,56.34
2018-08-12T06:42:44.693Z,56.68
2018-08-12T06:45:15.484Z,57.22
2018-08-12T06:47:46.014Z,56.56
2018-08-12T06:50:15.374Z,55.63
2018-08-12T06:52:44.670Z,55.91
2018-08-12T06:55:14.573Z,54.53
2018-08-12T06:57:44.569Z,54.20
2018-08-12T07:00:16.670Z,54.70
2018-08-12T07:02:46.021Z,53.46
2018-08-12T07:05:15.440Z,52.15
2018-08-12T07:07:44.758Z,52.77
2018-08-12T07:10:15.357Z,52.70
2018-08-12T07:12:44.793Z,52.63
2018-08-12T07:15:17.002Z,52.47
2018-08-12T07:17:47.037Z,52.29
2018-08-12T07:20:17.089Z,50.92
2018-08-12T07:22:46.400Z,51.85
2018-08-12T07:25:15.874Z,50.03
2018-08-12T07:27:45.277Z,50.88
2018-08-12T07:30:16.213Z,50.01
2018-08-12T07:32:45.665Z,49.96
2018-08-12T07:35:14.961Z,50.05
2018-08-12T07:37:44.336Z,48.13
2018-08-12T07:40:21.474Z,47.65
2018-08-12T07:42:51.506Z,48.38
2018-08-12T07:45:20.854Z,46.89
2018-08-12T07:47:50.206Z,45.62
2018-08-12T07:50:19.568Z,45.14
2018-08-12T07:52:48.906Z,45.70
2018-08-12T07:55:18.269Z,45.12
2018-08-12T07:57:47.393Z,44.23
2018-08-12T08:00:19.565Z,44.87
2018-08-12T08:02:49.174Z,44.46
2018-08-12T08:05:18.518Z,44.90
2018-08-12T08:07:47.926Z,43.90
2018-08-12T08:10:18.006Z,43.73
2018-08-12T08:12:47.620Z,42.86
2018-08-12T08:15:19.229Z,43.27
2018-08-12T08:17:48.784Z,42.80
2018-08-12T08:20:18.226Z,42.05
2018-08-12T08:22:47.589Z,42.93
2018-08-12T08:25:17.034Z,42.24
2018-08-12T08:27:46.546Z,41.68
2018-08-12T08:30:16.700Z,41.69
2018-08-12T08:32:46.267Z,42.18
2018-08-12T08:35:15.556Z,41.53
2018-08-12T08:37:44.998Z,41.75
2018-08-12T08:40:16.513Z,40.73
2018-08-12T08:42:46.233Z,39.59
2018-08-12T08:45:19.552Z,40.49
2018-08-12T08:47:50.031Z,41.30
2018-08-12T08:50:20.792Z,40.78
2018-08-12T08:52:50.458Z,39.72
2018-08-12T08:55:19.798Z,40.31
2018-08-12T08:57:49.209Z,41.03
2018-08-12T09:00:20.175Z,40.06
2018-08-12T09:02:51.000Z,39.81
2018-08-12T09:05:20.677Z,40.46
2018-08-12T09:07:50.527Z,39.82
2018-08-12T09:10:20.300Z,39.08
2018-08-12T09:12:49.753Z,39.93
2018-08-12T09:15:20.336Z,39.48
2018-08-12T09:17:50.158Z,39.17
2018-08-12T09:20:20.748Z,39.50
2018-08-12T09:22:50.199Z,39.08
2018-08-12T09:25:19.566Z,40.24
2018-08-12T09:27:49.138Z,38.71
2018-08-12T09:30:19.822Z,39.29
2018-08-12T09:32:49.589Z,38.77
2018-08-12T09:35:18.940Z,38.44
2018-08-12T09:37:48.280Z,37.41
2018-08-12T09:40:18.688Z,37.81
2018-08-12T09:42:48.559Z,38.29
2018-08-12T09:45:19.844Z,37.47
2018-08-12T09:47:49.234Z,37.36
2018-08-12T09:50:19.956Z,36.41
2018-08-12T09:52:50.305Z,36.28
2018-08-12T09:55:19.861Z,36.24
2018-08-12T09:57:49.169Z,36.09
2018-08-12T10:00:24.227Z,36.33
2018-08-12T10:02:55.042Z,35.23
2018-08-12T10:05:24.785Z,35.61
2018-08-12T10:07:54.201Z,35.38
2018-08-12T10:10:23.569Z,35.91
2018-08-12T10:12:53.027Z,35.78
2018-08-12T10:15:22.384Z,34.89
2018-08-12T10:17:59.974Z,34.85
2018-08-12T10:20:29.419Z,34.48
2018-08-12T10:22:58.813Z,33.98
2018-08-12T10:25:28.237Z,34.78
2018-08-12T10:27:57.589Z,34.94
2018-08-12T10:30:26.971Z,33.95
2018-08-12T10:32:56.177Z,33.77
2018-08-12T10:35:25.527Z,32.92
2018-08-12T10:37:54.989Z,32.55
2018-08-12T10:40:24.421Z,33.87
2018-08-12T10:42:53.759Z,33.71
2018-08-12T10:45:23.082Z,32.58
2018-08-12T10:47:52.466Z,32.81
2018-08-12T10:50:21.786Z,32.74
2018-08-12T10:52:51.556Z,32.39
2018-08-12T10:55:23.035Z,32.61
2018-08-12T10:57:52.466Z,32.49
2018-08-12T11:00:27.223Z,32.39
2018-08-12T11:02:56.679Z,32.26
2018-08-12T11:05:26.032Z,32.21
2018-08-12T11:07:56.733Z,31.37
2018-08-12T11:10:26.435Z,31.47
2018-08-12T11:12:55.923Z,31.72
2018-08-12T11:15:25.253Z,31.35
2018-08-12T11:17:54.626Z,30.72
2018-08-12T11:20:23.971Z,30.97
2018-08-12T11:22:53.359Z,31.01
2018-08-12T11:25:22.708Z,31.40
2018-08-12T11:27:52.054Z,31.25
2018-08-12T11:30:23.385Z,30.74
2018-08-12T11:32:52.848Z,30.05
2018-08-12T11:35:22.346Z,29.81
2018-08-12T11:37:51.651Z,30.85
2018-08-12T11:40:21.002Z,29.77
2018-08-12T11:42:50.351Z,29.89
2018-08-12T11:45:20.043Z,29.85
2018-08-12T11:47:49.800Z,29.78
2018-08-12T11:50:19.463Z,29.38
2018-08-12T11:52:48.890Z,29.03
2018-08-12T11:55:20.276Z,29.14
2018-08-12T11:57:50.022Z,28.39
2018-08-12T12:00:21.456Z,29.08
2018-08-12T12:02:52.036Z,29.68
2018-08-12T12:05:21.869Z,30.12
2018-08-12T12:07:51.453Z,29.90
2018-08-12T12:10:22.424Z,29.43
2018-08-12T12:12:52.781Z,28.63
2018-08-12T12:15:22.233Z,29.59
2018-08-12T12:17:51.763Z,28.72
2018-08-12T12:20:21.331Z,28.73
2018-08-12T12:22:50.701Z,28.86
2018-08-12T12:25:21.062Z,29.36
2018-08-12T12:27:50.440Z,28.13
2018-08-12T12:30:21.462Z,28.54
2018-08-12T12:32:52.006Z,28.25
2018-08-12T12:35:21.424Z,26.59
2018-08-12T12:37:50.826Z,26.91
2018-08-12T12:40:20.542Z,26.71
2018-08-12T12:42:49.930Z,25.69
2018-08-12T12:45:19.354Z,24.33
2018-08-12T12:47:48.718Z,24.63
2018-08-12T12:50:21.506Z,25.41
2018-08-12T12:52:51.724Z,25.11
2018-08-12T12:55:22.096Z,24.77
2018-08-12T12:57:51.453Z,24.39
2018-08-12T13:00:21.582Z,26.51
2018-08-12T13:02:51.297Z,24.62
2018-08-12T13:05:27.018Z,23.42
2018-08-12T13:07:56.344Z,23.92
2018-08-12T13:10:25.812Z,22.74
2018-08-12T13:12:55.291Z,23.37
2018-08-12T13:15:24.565Z,22.33
2018-08-12T13:17:53.897Z,22.33
2018-08-12T13:20:23.231Z,21.11
2018-08-12T13:22:52.590Z,22.29
2018-08-12T13:25:23.214Z,22.73
2018-08-12T13:27:52.618Z,22.36
2018-08-12T13:30:22.487Z,21.61
2018-08-12T13:32:51.862Z,22.34
2018-08-12T13:35:21.266Z,22.92
2018-08-12T13:37:50.561Z,22.52
2018-08-12T13:40:19.888Z,22.80
2018-08-12T13:42:49.221Z,23.03
2018-08-12T13:45:18.594Z,23.26
2018-08-12T13:47:47.897Z,22.33
2018-08-12T13:50:22.912Z,22.35
2018-08-12T13:52:54.002Z,22.44
2018-08-12T13:55:24.937Z,22.50
2018-08-12T13:57:55.519Z,22.00
2018-08-12T14:00:27.613Z,21.93
2018-08-12T14:02:57.559Z,22.57
2018-08-12T14:05:27.764Z,22.57
2018-08-12T14:07:58.218Z,23.30
2018-08-12T14:10:28.400Z,22.48
2018-08-12T14:12:57.715Z,23.47
2018-08-12T14:15:27.073Z,23.71
2018-08-12T14:17:56.440Z,23.89
2018-08-12T14:20:25.782Z,23.18
2018-08-12T14:22:55.128Z,23.95
2018-08-12T14:25:24.406Z,24.23
2018-08-12T14:27:53.814Z,23.96
2018-08-12T14:30:23.614Z,23.75
2018-08-12T14:32:52.945Z,24.29
2018-08-12T14:35:22.292Z,24.63
2018-08-12T14:37:51.705Z,24.78
2018-08-12T14:40:21.031Z,24.64
2018-08-12T14:42:50.317Z,24.03
2018-08-12T14:45:19.659Z,23.34
2018-08-12T14:47:48.983Z,23.71
2018-08-12T14:50:20.254Z,24.03
2018-08-12T14:52:49.641Z,24.09
2018-08-12T14:55:20.510Z,24.56
2018-08-12T14:57:49.869Z,24.46
2018-08-12T15:00:22.135Z,24.23
2018-08-12T15:02:52.466Z,24.35
2018-08-12T15:05:22.251Z,23.56
2018-08-12T15:07:51.640Z,24.22
2018-08-12T15:10:21.895Z,23.98
2018-08-12T15:12:51.198Z,24.30
2018-08-12T15:15:21.025Z,24.09
2018-08-12T15:17:50.187Z,23.78
2018-08-12T15:20:19.672Z,23.63
2018-08-12T15:22:49.001Z,24.33
2018-08-12T15:25:20.828Z,23.74
2018-08-12T15:27:50.192Z,24.02
2018-08-12T15:30:19.702Z,24.10
2018-08-12T15:32:48.979Z,23.16
2018-08-12T15:35:18.362Z,23.62
2018-08-12T15:37:47.719Z,24.37
2018-08-12T15:40:17.099Z,23.81
2018-08-12T15:42:46.425Z,24.21
2018-08-12T15:45:17.939Z,24.65
2018-08-12T15:47:47.848Z,23.94
2018-08-12T15:50:17.189Z,24.19
2018-08-12T15:52:52.611Z,24.03
2018-08-12T15:55:21.941Z,23.96
2018-08-12T15:57:51.204Z,24.42
2018-08-12T16:00:22.026Z,24.28
2018-08-12T16:02:51.750Z,23.84
2018-08-12T16:05:21.068Z,24.56
2018-08-12T16:07:50.437Z,24.51
2018-08-12T16:10:22.429Z,25.04
2018-08-12T16:12:53.077Z,25.33
2018-08-12T16:15:23.014Z,25.39
2018-08-12T16:17:52.389Z,25.54
2018-08-12T16:20:21.683Z,25.48
2018-08-12T16:22:51.065Z,25.80
2018-08-12T16:25:21.504Z,25.46
2018-08-12T16:27:50.830Z,25.95
2018-08-12T16:30:20.311Z,25.88
2018-08-12T16:32:49.620Z,25.87
2018-08-12T16:35:18.968Z,26.49
2018-08-12T16:37:48.578Z,26.28
2018-08-12T16:40:19.975Z,26.81
2018-08-12T16:42:49.583Z,26.95
2018-08-12T16:45:19.718Z,26.19
2018-08-12T16:47:49.264Z,26.79
2018-08-12T16:50:18.616Z,27.45
2018-08-12T16:52:48.022Z,27.49
2018-08-12T16:55:18.566Z,26.63
2018-08-12T16:57:48.359Z,26.89
2018-08-12T17:00:19.897Z,26.73
2018-08-12T17:02:49.390Z,27.24
2018-08-12T17:05:20.405Z,27.23
2018-08-12T17:07:49.835Z,24.79
2018-08-12T17:10:19.874Z,22.74
2018-08-12T17:12:49.281Z,23.01
2018-08-12T17:15:21.083Z,21.63
2018-08-12T17:17:50.656Z,21.46
2018-08-12T17:20:21.223Z,21.14
2018-08-12T17:22:50.372Z,20.79
2018-08-12T17:25:19.670Z,21.44
2018-08-12T17:27:49.076Z,20.40
2018-08-12T17:30:18.538Z,20.93
2018-08-12T17:32:47.906Z,21.47
2018-08-12T17:35:17.263Z,22.13
2018-08-12T17:37:46.790Z,22.15
2018-08-12T17:40:16.786Z,21.76
2018-08-12T17:42:46.208Z,21.87
2018-08-12T17:45:15.697Z,22.92
2018-08-12T17:47:45.115Z,24.75
2018-08-12T17:50:16.104Z,26.65
2018-08-12T17:52:45.462Z,27.53
2018-08-12T17:55:14.814Z,28.54
2018-08-12T17:57:44.095Z,30.01
2018-08-12T18:00:16.237Z,29.47
2018-08-12T18:02:45.595Z,30.33
2018-08-12T18:05:14.937Z,30.82
2018-08-12T18:07:44.592Z,31.42
2018-08-12T18:10:13.974Z,32.20
2018-08-12T18:12:43.306Z,33.07
2018-08-12T18:15:13.102Z,33.07
2018-08-12T18:17:43.001Z,33.01
2018-08-12T18:20:12.423Z,33.53
2018-08-12T18:22:41.838Z,34.22
2018-08-12T18:25:12.194Z,34.98
2018-08-12T18:27:41.532Z,35.25
2018-08-12T18:30:13.948Z,35.30
2018-08-12T18:32:43.470Z,35.74
2018-08-12T18:35:13.468Z,36.10
2018-08-12T18:37:42.979Z,36.83
2018-08-12T18:40:12.884Z,37.20
2018-08-12T18:42:42.171Z,37.89
2018-08-12T18:45:11.531Z,37.48
2018-08-12T18:47:40.839Z,38.08
2018-08-12T18:50:11.309Z,38.65
2018-08-12T18:52:41.201Z,39.48
2018-08-12T18:55:12.018Z,39.85
2018-08-12T18:57:41.340Z,40.92
2018-08-12T19:00:13.269Z,41.46
2018-08-12T19:02:42.622Z,42.74
2018-08-12T19:05:12.598Z,43.31
2018-08-12T19:07:41.892Z,43.75
2018-08-12T19:10:11.916Z,44.27
2018-08-12T19:12:42.042Z,44.65
2018-08-12T19:15:12.297Z,44.42
2018-08-12T19:17:41.645Z,44.93
2018-08-12T19:20:11.614Z,45.28
2018-08-12T19:22:41.113Z,45.89
2018-08-12T19:25:10.715Z,46.60
2018-08-12T19:27:40.107Z,46.78
2018-08-12T19:30:12.591Z,47.75
2018-08-12T19:32:42.155Z,46.82
2018-08-12T19:35:12.134Z,47.83
2018-08-12T19:40:10.396Z,48.04
2018-08-12T19:42:39.862Z,48.85
2018-08-12T19:45:10.552Z,48.39
2018-08-12T19:47:40.050Z,47.92
2018-08-12T19:50:09.522Z,48.50
2018-08-12T19:52:39.008Z,49.52
2018-08-12T19:55:08.689Z,49.27
2018-08-12T19:57:38.050Z,49.46
2018-08-12T20:00:10.687Z,49.94
2018-08-12T20:02:40.401Z,49.97
2018-08-12T20:05:09.820Z,49.97
2018-08-12T20:07:39.181Z,49.77
2018-08-12T20:10:10.111Z,50.68
2018-08-12T20:12:39.538Z,50.22
2018-08-12T20:15:11.070Z,50.53
2018-08-12T20:17:40.935Z,50.17
2018-08-12T20:20:12.188Z,50.83
2018-08-12T20:22:42.143Z,50.78
2018-08-12T20:25:11.494Z,50.12
2018-08-12T20:27:40.969Z,51.51
2018-08-12T20:30:12.074Z,50.78
2018-08-12T20:32:42.013Z,52.10
2018-08-12T20:35:11.575Z,52.01
2018-08-12T20:37:41.080Z,52.07
2018-08-12T20:40:10.530Z,51.37
2018-08-12T20:42:39.938Z,51.32
2018-08-12T20:45:09.216Z,51.31
2018-08-12T20:47:38.700Z,52.25
2018-08-12T20:50:08.287Z,52.16
2018-08-12T20:52:37.723Z,52.60
2018-08-12T20:55:07.091Z,52.76
2018-08-12T20:57:36.422Z,52.74
2018-08-12T21:00:07.715Z,54.06
2018-08-12T21:02:37.081Z,53.90
2018-08-12T21:05:06.602Z,53.53
2018-08-12T21:07:35.993Z,54.27
2018-08-12T21:10:06.102Z,54.27
2018-08-12T21:12:35.458Z,54.02
2018-08-12T21:15:05.103Z,54.28
2018-08-12T21:17:34.419Z,53.83
2018-08-12T21:20:03.710Z,53.90
2018-08-12T21:22:33.019Z,53.34
2018-08-12T21:25:02.342Z,53.60
2018-08-12T21:27:31.850Z,54.81
2018-08-12T21:30:01.223Z,54.79
2018-08-12T21:32:30.524Z,54.51
2018-08-12T21:34:59.771Z,54.84
2018-08-12T21:37:29.142Z,55.02
2018-08-12T21:39:58.462Z,56.34
2018-08-12T21:42:27.801Z,55.94
2018-08-12T21:44:57.221Z,55.96
2018-08-12T21:47:26.722Z,55.78
2018-08-12T21:49:56.024Z,56.77
2018-08-12T21:52:25.386Z,56.72
2018-08-12T21:54:54.706Z,57.36
2018-08-12T21:57:24.153Z,57.57
2018-08-12T21:59:53.449Z,58.05
2018-08-12T22:02:22.793Z,58.50
2018-08-12T22:04:52.207Z,58.67
2018-08-12T22:07:21.441Z,58.37
2018-08-12T22:09:51.413Z,58.56
2018-08-12T22:12:20.920Z,58.51
2018-08-12T22:14:50.702Z,59.45
2018-08-12T22:17:20.227Z,59.41
2018-08-12T22:19:51.166Z,59.08
2018-08-12T22:22:20.490Z,59.71
2018-08-12T22:24:49.895Z,59.67
2018-08-12T22:27:19.216Z,60.15
2018-08-12T22:29:48.557Z,59.62
2018-08-12T22:32:17.841Z,60.16
2018-08-12T22:34:47.538Z,60.98
2018-08-12T22:37:16.867Z,60.33
2018-08-12T22:39:46.601Z,60.34
2018-08-12T22:42:15.867Z,60.10
2018-08-12T22:44:45.127Z,60.57
2018-08-12T22:47:14.446Z,61.50
2018-08-12T22:49:43.773Z,61.34
2018-08-12T22:52:13.035Z,61.50
2018-08-12T22:54:42.323Z,60.90
2018-08-12T22:57:11.568Z,60.90
2018-08-12T22:59:40.852Z,61.24
2018-08-12T23:02:10.134Z,60.82
2018-08-12T23:04:39.381Z,61.03
2018-08-12T23:07:08.656Z,60.84
2018-08-12T23:09:37.983Z,60.83
2018-08-12T23:12:07.282Z,61.05
2018-08-12T23:17:16.480Z,61.71
2018-08-12T23:19:45.810Z,62.02
2018-08-12T23:22:15.115Z,61.95
2018-08-12T23:24:44.458Z,61.53
2018-08-12T23:27:13.702Z,61.13
2018-08-12T23:29:43.038Z,60.78
2018-08-12T23:32:12.291Z,61.69
2018-08-12T23:34:41.590Z,61.10
2018-08-12T23:37:10.853Z,61.48
2018-08-12T23:39:40.179Z,61.88
2018-08-12T23:42:09.468Z,61.95
2018-08-12T23:44:38.770Z,61.33
2018-08-12T23:47:08.038Z,62.02
2018-08-12T23:49:37.326Z,62.52
2018-08-12T23:52:06.586Z,61.82
2018-08-12T23:54:35.886Z,63.12
2018-08-12T23:57:05.193Z,62.44
2018-08-12T23:59:34.515Z,62.92
